Flight Track Log - Related Links

Times and Time Zones

All times are in EDT time to prevent confusion due to time zone crossing. See the UPS1121 flight status page for this flight to view local times or setup timezone preferences in your user account.

Time Position Orientation Groundspeed Altitude Reporting Facility
EDT Latitude Longitude Course Direction KTS MPH feet Rate Location/Type
Wed 08:34:10 PM 42.7381 -73.8111 147° Southeast 133 153 1,500  Level Boston Center
Wed 08:35:04 PM 42.7050 -73.7822 147° Southeast 190 219 2,600 2,366 Climbing Boston Center
Wed 08:36:32 PM 42.6375 -73.6847 133° Southeast 250 288 7,100 3,243 Climbing Boston Center
Wed 08:37:32 PM 42.5781 -73.5961 132° Southeast 284 327 10,600 2,600 Climbing Boston Center
Wed 08:38:02 PM 42.5450 -73.5503 134° Southeast 326 375 11,000 400 Climbing Boston Center
Wed 08:38:32 PM 42.5206 -73.5078 128° Southeast 320 368 11,000  Level Boston Center
Wed 08:39:32 PM 42.4464 -73.3967 132° Southeast 348 400 11,000  Level Boston Center
Wed 08:40:39 PM 42.3742 -73.2917 133° Southeast 353 406 11,000 -50 Level Boston Center
Wed 08:41:32 PM 42.3167 -73.1981 130° Southeast 348 400 10,900 -265 Descending Boston Center
Wed 08:42:32 PM 42.2650 -73.1189 131° Southeast 328 377 10,500 -1,050 Descending Boston Center
Wed 08:43:32 PM 42.2261 -73.0092 116° Southeast 306 352 8,800 -1,550 Descending Boston Center
Wed 08:44:32 PM 42.2056 -72.9108 106° East 293 337 7,400 -1,550 Descending Boston Center
Wed 08:45:32 PM 42.1853 -72.7931 103° East 293 337 5,700 -2,000 Descending Boston Center
Wed 08:46:32 PM 42.1667 -72.7006 105° East 293 337 3,400 -1,350 Descending Boston Center
Wed 08:47:32 PM 42.1356 -72.5969 112° Southeast 275 316 3,000 -700 Descending Boston Center
Wed 08:48:32 PM 42.0856 -72.5353 138° Southeast 256 295 2,000 -450 Descending Boston Center
Wed 08:49:32 PM 42.0397 -72.5519 195° South 191 220 2,100 -150 Climbing Boston Center
Wed 08:50:32 PM 42.0106 -72.5967 229° Southwest 154 177 1,700 -500 Descending Boston Center
Wed 08:51:32 PM 41.9814 -72.6328 223° Southwest 154 177 1,100 -550 Descending Boston Center
Wed 08:52:32 PM 41.9647 -72.6578 228° Southwest 134 154 600 -500 Descending Boston Center
Wed 08:54:00 PM 41.9333 -72.6833 183° South  Level FlightAware Approximate
Wed 09:01:00 PM 41.9392 -72.6834 183° South  Level Estimated
Wed 09:02:00 PM 41.9333 -72.6833 183° South  Level FlightAware Approximate
Wed 09:03:00 PM 41.9392 -72.6834 183° South  Level Estimated

Login

Don't have an account? Register now (free) for customized features, flight alerts, and more!